Time;durP1;ratioP1;P1;durP2;ratioP2;P2;SDS_P1;SDS_P2;PMS_P1;PMS_P2;Temp;Humidity;BMP_temperature;BMP_pressure;BME280_temperature;BME280_humidity;BME280_pressure;Samples;Min_cycle;Max_cycle;Signal;HPM_P1;HPM_P2
2021/03/23 00:01:12;;;;;;;9.70;6.80;;;1.90;99.90;;;;;;5154072;27;21181;-71
2021/03/23 00:03:48;;;;;;;11.60;7.43;;;1.80;99.90;;;;;;5152813;27;20430;-71
2021/03/23 00:06:18;;;;;;;9.90;6.60;;;1.80;99.90;;;;;;5153150;27;21005;-70
2021/03/23 00:08:46;;;;;;;17.03;6.80;;;1.80;99.90;;;;;;5153607;27;20943;-70
2021/03/23 00:11:16;;;;;;;14.13;6.80;;;1.80;99.90;;;;;;5153513;27;20460;-70
2021/03/23 00:13:45;;;;;;;13.00;7.90;;;1.70;99.90;;;;;;5153369;27;20449;-71
2021/03/23 00:16:12;;;;;;;13.47;8.30;;;1.80;99.90;;;;;;5153578;27;20434;-71
2021/03/23 00:18:40;;;;;;;19.07;8.27;;;1.70;99.90;;;;;;5153199;27;20418;-71
2021/03/23 00:21:07;;;;;;;14.70;6.80;;;1.80;99.90;;;;;;5153530;27;20863;-71
2021/03/23 00:23:35;;;;;;;13.80;6.97;;;1.80;99.90;;;;;;5152360;27;20454;-70
2021/03/23 00:26:02;;;;;;;18.20;7.57;;;1.70;99.90;;;;;;5153429;27;20470;-71
2021/03/23 00:28:31;;;;;;;9.77;6.23;;;1.80;99.90;;;;;;5153292;27;20418;-71
2021/03/23 00:30:58;;;;;;;9.83;6.80;;;1.80;99.90;;;;;;5153222;27;20442;-70
2021/03/23 00:33:25;;;;;;;8.73;6.47;;;1.80;99.90;;;;;;5152057;27;20458;-71
2021/03/23 00:35:56;;;;;;;14.83;7.80;;;1.80;99.90;;;;;;5153399;27;20426;-71
2021/03/23 00:38:23;;;;;;;14.40;7.63;;;1.80;99.90;;;;;;5153161;27;20557;-71
2021/03/23 00:40:52;;;;;;;12.80;7.43;;;1.80;99.90;;;;;;5152291;27;20460;-70
2021/03/23 00:43:19;;;;;;;15.23;8.40;;;1.80;99.90;;;;;;5152739;27;20514;-71
2021/03/23 00:45:47;;;;;;;12.03;7.20;;;1.80;99.90;;;;;;5153069;27;20913;-71
2021/03/23 00:48:16;;;;;;;18.70;9.80;;;1.80;99.90;;;;;;5152946;27;20501;-71
2021/03/23 00:50:43;;;;;;;11.23;7.33;;;1.80;99.90;;;;;;5151807;27;20492;-71
2021/03/23 00:53:10;;;;;;;16.50;8.33;;;1.70;99.90;;;;;;5152626;27;20426;-70
2021/03/23 00:55:37;;;;;;;11.80;7.77;;;1.70;99.90;;;;;;5151847;27;20494;-71
2021/03/23 00:58:05;;;;;;;16.67;8.33;;;1.70;99.90;;;;;;5152869;27;20554;-71
2021/03/23 01:00:32;;;;;;;11.90;7.90;;;1.70;99.90;;;;;;5152500;27;20458;-71
2021/03/23 01:03:00;;;;;;;13.00;7.30;;;1.70;99.90;;;;;;5151945;27;20482;-71
2021/03/23 01:05:30;;;;;;;13.70;8.60;;;1.70;99.90;;;;;;5152694;27;20540;-71
2021/03/23 01:07:56;;;;;;;13.97;7.57;;;1.70;99.90;;;;;;5152529;27;20428;-71
2021/03/23 01:10:25;;;;;;;11.50;7.70;;;1.70;99.90;;;;;;5152078;27;21033;-71
2021/03/23 01:12:52;;;;;;;12.83;7.70;;;1.70;99.90;;;;;;5152438;27;20940;-71
2021/03/23 01:15:23;;;;;;;15.23;7.60;;;1.70;99.90;;;;;;5152779;27;20445;-71
2021/03/23 01:17:50;;;;;;;12.03;7.70;;;1.80;99.90;;;;;;5152213;27;20469;-71
2021/03/23 01:20:19;;;;;;;16.17;8.60;;;1.80;99.90;;;;;;5151274;27;20461;-71
2021/03/23 01:22:49;;;;;;;13.70;7.50;;;1.80;99.90;;;;;;5152462;27;20428;-70
2021/03/23 01:25:17;;;;;;;18.90;8.53;;;1.70;99.90;;;;;;5152748;27;20438;-71
2021/03/23 01:27:43;;;;;;;11.07;7.17;;;1.70;99.90;;;;;;5152591;27;20422;-71
2021/03/23 01:30:12;;;;;;;12.17;7.60;;;1.60;99.90;;;;;;5151678;27;20541;-70
2021/03/23 01:32:39;;;;;;;14.30;8.43;;;1.60;99.90;;;;;;5152376;27;20421;-71
2021/03/23 01:35:09;;;;;;;12.47;8.37;;;1.70;99.90;;;;;;5152427;27;20438;-71
2021/03/23 01:37:36;;;;;;;17.30;9.50;;;1.70;99.90;;;;;;5152491;27;20488;-70
2021/03/23 01:40:04;;;;;;;15.00;7.60;;;1.70;99.90;;;;;;5151750;27;20448;-71
2021/03/23 01:42:40;;;;;;;24.00;8.00;;;1.70;99.90;;;;;;5131459;28;20434;-71
2021/03/23 01:45:24;;;;;;;11.63;9.03;;;1.70;99.90;;;;;;5131870;28;20427;-70
2021/03/23 01:47:52;;;;;;;13.23;7.60;;;1.70;99.90;;;;;;5131709;28;20973;-71
2021/03/23 01:50:21;;;;;;;14.53;7.60;;;1.70;99.90;;;;;;5131430;27;20439;-71
2021/03/23 01:52:56;;;;;;;14.63;8.87;;;1.60;99.90;;;;;;5131543;28;20813;-71
2021/03/23 01:55:23;;;;;;;13.43;8.23;;;1.60;99.90;;;;;;5131426;28;20419;-71
2021/03/23 01:57:51;;;;;;;17.90;8.50;;;1.60;99.90;;;;;;5131199;28;20459;-71
2021/03/23 02:00:22;;;;;;;17.40;9.00;;;1.60;99.90;;;;;;5131540;27;20504;-71
2021/03/23 02:02:49;;;;;;;16.03;7.37;;;1.60;99.90;;;;;;5131349;28;20423;-71
2021/03/23 02:05:24;;;;;;;15.97;9.07;;;1.60;99.90;;;;;;5131386;28;20500;-71
2021/03/23 02:07:51;;;;;;;14.43;8.20;;;1.60;99.90;;;;;;5131482;28;20825;-71
2021/03/23 02:10:20;;;;;;;16.53;9.33;;;1.60;99.90;;;;;;5131402;27;20930;-70
2021/03/23 02:12:47;;;;;;;16.83;9.07;;;1.50;99.90;;;;;;5130784;28;20431;-71
2021/03/23 02:15:15;;;;;;;14.53;8.20;;;1.50;99.90;;;;;;5131464;28;20427;-71
2021/03/23 02:17:42;;;;;;;19.53;8.77;;;1.50;99.90;;;;;;5131299;28;20987;-71
2021/03/23 02:20:13;;;;;;;15.87;9.97;;;1.50;99.90;;;;;;5139935;27;20505;-70
2021/03/23 02:22:42;;;;;;;16.90;8.13;;;1.50;99.90;;;;;;5151668;27;20441;-71
2021/03/23 02:25:14;;;;;;;14.20;7.97;;;1.60;99.90;;;;;;5151965;27;20451;-71
2021/03/23 02:27:41;;;;;;;16.80;8.23;;;1.50;99.90;;;;;;5151942;27;20430;-70
2021/03/23 02:30:15;;;;;;;21.53;8.33;;;1.60;99.90;;;;;;5152960;27;20462;-71
2021/03/23 02:32:41;;;;;;;12.27;7.50;;;1.60;99.90;;;;;;5155523;27;20440;-71
2021/03/23 02:35:09;;;;;;;14.63;9.37;;;1.50;99.90;;;;;;5155068;27;20436;-71
2021/03/23 02:37:36;;;;;;;18.73;8.30;;;1.50;99.90;;;;;;5155580;27;20822;-71
2021/03/23 02:40:06;;;;;;;17.10;8.40;;;1.50;99.90;;;;;;5155483;27;20934;-71
2021/03/23 02:42:33;;;;;;;12.83;8.90;;;1.50;99.90;;;;;;5155370;27;20442;-71
2021/03/23 02:44:59;;;;;;;16.90;8.90;;;1.50;99.90;;;;;;5154643;27;20458;-70
2021/03/23 02:47:26;;;;;;;10.67;7.97;;;1.40;99.90;;;;;;5155279;27;20509;-70
2021/03/23 02:49:53;;;;;;;12.27;7.20;;;1.40;99.90;;;;;;5154983;27;20448;-70
2021/03/23 02:52:20;;;;;;;21.10;8.20;;;1.40;99.90;;;;;;5155009;27;20521;-71
2021/03/23 02:54:47;;;;;;;17.30;8.27;;;1.30;99.90;;;;;;5155258;27;20424;-71
2021/03/23 02:57:14;;;;;;;20.33;8.50;;;1.30;99.90;;;;;;5155157;27;20500;-70
2021/03/23 02:59:44;;;;;;;15.10;9.93;;;1.30;99.90;;;;;;5155004;27;20470;-71
2021/03/23 03:02:11;;;;;;;13.70;8.03;;;1.30;99.90;;;;;;5155013;27;20533;-71
2021/03/23 03:04:39;;;;;;;12.07;8.30;;;1.30;99.90;;;;;;5154713;27;20421;-70
2021/03/23 03:07:06;;;;;;;12.37;8.27;;;1.10;99.90;;;;;;5155118;27;20511;-71
2021/03/23 03:09:32;;;;;;;11.13;8.27;;;1.10;99.90;;;;;;5154849;27;20441;-70
2021/03/23 03:11:59;;;;;;;12.63;7.83;;;1.10;99.90;;;;;;5154810;27;20418;-70
2021/03/23 03:14:27;;;;;;;15.80;9.57;;;1.20;99.90;;;;;;5154839;27;20430;-70
2021/03/23 03:16:53;;;;;;;15.70;8.20;;;1.20;99.90;;;;;;5154580;27;20474;-70
2021/03/23 03:19:20;;;;;;;17.57;7.97;;;1.20;99.90;;;;;;5154317;27;20450;-70
2021/03/23 03:21:47;;;;;;;11.47;7.83;;;1.10;99.90;;;;;;5154573;27;20929;-71
2021/03/23 03:24:14;;;;;;;16.97;9.50;;;1.20;99.90;;;;;;5154319;27;20425;-70
2021/03/23 03:26:40;;;;;;;18.37;9.43;;;1.10;99.90;;;;;;5154656;27;20422;-70
2021/03/23 03:29:07;;;;;;;18.93;9.70;;;1.20;99.90;;;;;;5154506;27;20434;-70
2021/03/23 03:31:35;;;;;;;15.07;9.20;;;1.10;99.90;;;;;;5154239;27;20466;-70
2021/03/23 03:34:02;;;;;;;17.10;9.00;;;1.10;99.90;;;;;;5154342;27;20448;-70
2021/03/23 03:36:31;;;;;;;14.83;8.13;;;1.10;99.90;;;;;;5154260;27;20426;-71
2021/03/23 03:38:58;;;;;;;16.47;8.83;;;1.20;99.90;;;;;;5154252;27;20436;-70
2021/03/23 03:41:25;;;;;;;14.97;9.40;;;1.20;99.90;;;;;;5153339;27;20502;-70
2021/03/23 03:43:52;;;;;;;17.27;8.40;;;1.20;99.90;;;;;;5154302;27;20433;-71
2021/03/23 03:46:19;;;;;;;14.20;9.27;;;1.30;99.90;;;;;;5154170;27;20434;-70
2021/03/23 03:48:47;;;;;;;17.20;9.43;;;1.30;99.90;;;;;;5154152;27;20422;-70
2021/03/23 03:51:13;;;;;;;17.73;9.43;;;1.20;99.90;;;;;;5153711;27;20445;-70
2021/03/23 03:53:40;;;;;;;19.80;10.63;;;1.30;99.90;;;;;;5153995;27;20460;-70
2021/03/23 03:56:08;;;;;;;14.03;8.50;;;1.30;99.90;;;;;;5153903;27;20437;-70
2021/03/23 03:58:34;;;;;;;16.03;9.97;;;1.30;99.90;;;;;;5153764;27;20484;-70
2021/03/23 04:01:01;;;;;;;14.57;8.90;;;1.30;99.90;;;;;;5153614;27;20545;-71
2021/03/23 04:03:29;;;;;;;17.73;9.60;;;1.30;99.90;;;;;;5153629;27;21055;-70
2021/03/23 04:05:59;;;;;;;18.10;9.67;;;1.30;99.90;;;;;;5153562;27;20427;-70
2021/03/23 04:08:28;;;;;;;17.27;9.10;;;1.30;99.90;;;;;;5153813;27;20431;-70
2021/03/23 04:10:57;;;;;;;14.60;9.03;;;1.30;99.90;;;;;;5153611;27;20453;-70
2021/03/23 04:13:23;;;;;;;15.73;8.93;;;1.30;99.90;;;;;;5153752;27;20845;-70
2021/03/23 04:15:50;;;;;;;13.83;8.40;;;1.30;99.90;;;;;;5153572;27;20430;-70
2021/03/23 04:18:19;;;;;;;15.93;9.07;;;1.40;99.90;;;;;;5153422;27;20599;-70
2021/03/23 04:20:47;;;;;;;16.57;8.80;;;1.40;99.90;;;;;;5153234;27;20454;-70
2021/03/23 04:23:21;;;;;;;18.30;8.70;;;1.40;99.90;;;;;;5153538;27;20961;-70
2021/03/23 04:25:48;;;;;;;14.90;8.50;;;1.30;99.90;;;;;;5153365;27;20472;-71
2021/03/23 04:28:15;;;;;;;16.73;9.97;;;1.40;99.90;;;;;;5153332;27;20423;-70
2021/03/23 04:30:41;;;;;;;14.30;8.80;;;1.40;99.90;;;;;;5153023;27;20454;-70
2021/03/23 04:33:08;;;;;;;16.40;8.30;;;1.40;99.90;;;;;;5153107;27;20456;-70
2021/03/23 04:35:44;;;;;;;27.00;9.90;;;1.30;99.90;;;;;;5153062;27;20447;-70
2021/03/23 04:38:14;;;;;;;21.73;10.60;;;1.40;99.90;;;;;;5152984;27;20458;-70
2021/03/23 04:40:42;;;;;;;15.87;9.87;;;1.40;99.90;;;;;;5153088;27;20971;-70
2021/03/23 04:43:09;;;;;;;14.27;8.53;;;1.40;99.90;;;;;;5152948;27;20432;-70
2021/03/23 04:45:36;;;;;;;15.83;9.20;;;1.30;99.90;;;;;;5152905;27;21089;-70
2021/03/23 04:48:03;;;;;;;13.87;9.47;;;1.30;99.90;;;;;;5152883;27;20799;-70
2021/03/23 04:50:30;;;;;;;19.63;9.20;;;1.30;99.90;;;;;;5152411;27;20822;-70
2021/03/23 04:52:56;;;;;;;19.63;10.67;;;1.30;99.90;;;;;;5152664;27;20418;-71
2021/03/23 04:55:23;;;;;;;12.30;7.90;;;1.30;99.90;;;;;;5152784;27;20517;-71
2021/03/23 04:57:51;;;;;;;18.23;10.23;;;1.30;99.90;;;;;;5152734;27;20474;-71
2021/03/23 05:00:18;;;;;;;18.03;8.87;;;1.30;99.90;;;;;;5152937;27;20438;-71
2021/03/23 05:02:45;;;;;;;12.90;8.27;;;1.20;99.90;;;;;;5152679;27;20437;-71
2021/03/23 05:05:12;;;;;;;19.77;10.60;;;1.30;99.90;;;;;;5152422;27;20438;-71
2021/03/23 05:07:39;;;;;;;15.73;9.60;;;1.20;99.90;;;;;;5152642;27;20449;-71
2021/03/23 05:10:10;;;;;;;13.60;9.43;;;1.30;99.90;;;;;;5152548;27;20449;-71
2021/03/23 05:12:37;;;;;;;19.07;11.17;;;1.20;99.90;;;;;;5152571;27;20943;-71
2021/03/23 05:15:06;;;;;;;19.03;9.43;;;1.30;99.90;;;;;;5152884;27;20484;-71
2021/03/23 05:17:33;;;;;;;16.40;8.93;;;1.30;99.90;;;;;;5152512;27;20454;-71
2021/03/23 05:20:00;;;;;;;17.17;9.47;;;1.30;99.90;;;;;;5152337;27;20444;-71
2021/03/23 05:22:26;;;;;;;17.87;9.57;;;1.30;99.90;;;;;;5152485;27;20438;-71
2021/03/23 05:24:53;;;;;;;17.80;9.60;;;1.20;99.90;;;;;;5152422;27;20502;-72
2021/03/23 05:27:20;;;;;;;15.30;9.23;;;1.20;99.90;;;;;;5152396;27;20525;-72
2021/03/23 05:29:47;;;;;;;16.40;9.73;;;1.20;99.90;;;;;;5152341;27;20545;-72
2021/03/23 05:32:14;;;;;;;12.43;9.20;;;1.20;99.90;;;;;;5152230;27;20526;-72
2021/03/23 05:34:41;;;;;;;17.90;11.03;;;1.20;99.90;;;;;;5152381;27;20429;-72
2021/03/23 05:37:08;;;;;;;21.10;9.10;;;1.20;99.90;;;;;;5152869;27;20500;-72
2021/03/23 05:39:34;;;;;;;17.23;10.00;;;1.30;99.90;;;;;;5152306;27;20582;-72
2021/03/23 05:42:08;;;;;;;21.20;10.30;;;1.30;99.90;;;;;;5152200;27;20440;-73
2021/03/23 05:44:58;;;;;;;14.20;9.93;;;1.30;99.90;;;;;;5152838;27;20439;-73
2021/03/23 05:47:33;;;;;;;15.23;9.40;;;1.40;99.90;;;;;;5152195;27;20430;-72
2021/03/23 05:50:10;;;;;;;17.27;9.20;;;1.30;99.90;;;;;;5152361;27;20938;-72
2021/03/23 05:52:41;;;;;;;17.33;11.00;;;1.30;99.90;;;;;;5151970;27;20444;-72
2021/03/23 05:55:32;;;;;;;19.73;10.37;;;1.30;99.90;;;;;;5152415;27;20415;-72
2021/03/23 05:58:00;;;;;;;21.83;9.60;;;1.40;99.90;;;;;;5148922;27;20560;-72
2021/03/23 06:00:31;;;;;;;18.60;9.47;;;1.40;99.90;;;;;;5152323;27;20454;-68
2021/03/23 06:03:06;;;;;;;13.47;8.97;;;1.50;99.90;;;;;;5151975;27;20430;-68
2021/03/23 06:05:43;;;;;;;18.00;10.27;;;1.60;99.90;;;;;;5153851;27;20993;-68
2021/03/23 06:08:25;;;;;;;15.27;9.17;;;1.70;99.90;;;;;;5156177;27;20422;-68
2021/03/23 06:11:33;;;;;;;14.33;9.30;;;1.80;99.90;;;;;;5156172;27;20857;-68
2021/03/23 06:14:23;;;;;;;20.30;11.47;;;1.90;99.90;;;;;;5156062;27;20441;-68
2021/03/23 06:16:57;;;;;;;16.80;10.30;;;1.90;99.90;;;;;;5155912;27;20478;-68
2021/03/23 06:19:34;;;;;;;18.90;10.57;;;1.90;99.90;;;;;;5155536;27;20429;-68
2021/03/23 06:22:08;;;;;;;17.10;9.83;;;1.90;99.90;;;;;;5155654;27;20426;-68
2021/03/23 06:24:41;;;;;;;21.67;10.03;;;1.90;99.90;;;;;;5155841;27;20442;-68
2021/03/23 06:27:17;;;;;;;22.80;14.00;;;1.90;99.90;;;;;;5148514;27;20999;-67
2021/03/23 06:30:16;;;;;;;26.90;13.30;;;2.00;99.90;;;;;;5143064;27;20460;-67
2021/03/23 06:32:50;;;;;;;49.73;28.43;;;2.00;99.90;;;;;;5139631;27;20793;-67
2021/03/23 06:35:22;;;;;;;34.50;24.70;;;2.00;99.90;;;;;;5134605;27;20437;-67
2021/03/23 06:37:49;;;;;;;25.30;17.20;;;2.10;99.90;;;;;;5134573;27;21013;-67
2021/03/23 06:40:18;;;;;;;31.60;19.80;;;2.20;99.90;;;;;;5134696;27;20509;-68
2021/03/23 06:42:48;;;;;;;24.37;17.43;;;2.30;99.90;;;;;;5134440;27;20448;-69
2021/03/23 06:45:30;;;;;;;22.30;14.47;;;2.30;99.90;;;;;;5151280;27;20436;-67
2021/03/23 06:48:17;;;;;;;31.33;19.63;;;2.40;99.90;;;;;;5155176;27;20430;-67
2021/03/23 06:50:46;;;;;;;29.70;15.50;;;2.40;99.90;;;;;;5153064;27;20503;-69
2021/03/23 06:53:15;;;;;;;33.47;20.13;;;2.50;99.90;;;;;;5153749;27;20431;-68
2021/03/23 06:55:45;;;;;;;34.50;21.97;;;2.50;99.90;;;;;;5154977;27;20794;-68
2021/03/23 06:58:28;;;;;;;34.97;26.83;;;2.60;99.90;;;;;;5154917;27;20553;-68
2021/03/23 07:01:20;;;;;;;39.37;22.37;;;2.60;99.90;;;;;;5154969;27;20445;-68
2021/03/23 07:03:49;;;;;;;28.57;19.67;;;2.70;99.90;;;;;;5154994;27;20478;-68
2021/03/23 07:06:27;;;;;;;25.07;15.13;;;2.70;99.90;;;;;;5154734;27;20432;-68
2021/03/23 07:09:15;;;;;;;23.93;15.10;;;2.80;99.90;;;;;;5155258;27;20792;-67
2021/03/23 07:11:59;;;;;;;26.57;15.00;;;2.80;99.90;;;;;;5154676;27;20453;-67
2021/03/23 07:14:35;;;;;;;33.47;19.33;;;2.90;99.90;;;;;;5154943;27;20445;-68
2021/03/23 07:17:35;;;;;;;28.17;18.67;;;2.90;99.90;;;;;;5155149;27;20473;-67
2021/03/23 07:20:10;;;;;;;22.77;15.30;;;3.00;99.90;;;;;;5154524;27;20534;-68
2021/03/23 07:22:47;;;;;;;28.60;15.20;;;3.00;99.90;;;;;;5154602;27;20490;-67
2021/03/23 07:25:44;;;;;;;26.77;17.07;;;3.00;99.90;;;;;;5154746;27;20498;-67
2021/03/23 07:28:28;;;;;;;28.80;14.47;;;3.00;99.90;;;;;;5069933;28;20434;-67
2021/03/23 07:31:05;;;;;;;26.60;14.27;;;3.00;99.90;;;;;;5145097;27;20473;-67
2021/03/23 07:34:00;;;;;;;31.30;13.97;;;3.10;99.90;;;;;;5154057;27;20803;-68
2021/03/23 07:36:29;;;;;;;24.33;15.97;;;3.20;99.90;;;;;;5154428;27;20502;-68
2021/03/23 07:39:02;;;;;;;25.37;16.77;;;3.40;99.90;;;;;;5154548;27;20462;-68
2021/03/23 07:41:35;;;;;;;23.83;13.00;;;3.60;99.90;;;;;;5153982;27;20453;-68
2021/03/23 07:44:07;;;;;;;29.67;15.87;;;3.60;99.90;;;;;;5154083;27;20438;-68
2021/03/23 07:46:39;;;;;;;44.23;18.00;;;3.70;99.90;;;;;;5154498;27;20509;-70
2021/03/23 07:49:16;;;;;;;28.30;16.43;;;3.70;99.90;;;;;;5154274;27;20450;-70
2021/03/23 07:51:50;;;;;;;25.63;14.80;;;3.70;99.90;;;;;;5153777;27;20525;-68
2021/03/23 07:54:29;;;;;;;30.93;17.23;;;3.80;99.90;;;;;;5153906;27;20427;-70
2021/03/23 07:57:15;;;;;;;23.10;13.57;;;3.90;99.90;;;;;;5153844;27;20444;-67
2021/03/23 08:00:04;;;;;;;23.60;14.73;;;4.00;99.90;;;;;;5150332;27;20510;-67
2021/03/23 08:02:46;;;;;;;20.00;11.80;;;4.00;99.90;;;;;;5153707;27;20437;-70
2021/03/23 08:05:28;;;;;;;26.53;13.53;;;4.10;99.90;;;;;;5153616;27;20440;-68
2021/03/23 08:08:07;;;;;;;22.77;13.53;;;4.10;99.90;;;;;;5153785;27;20458;-68
2021/03/23 08:10:37;;;;;;;25.17;14.87;;;4.20;99.90;;;;;;5153508;27;20438;-67
2021/03/23 08:13:26;;;;;;;24.73;15.40;;;4.20;99.90;;;;;;5153582;27;20434;-68
2021/03/23 08:16:16;;;;;;;17.93;12.53;;;4.30;99.90;;;;;;5133008;27;20430;-69
2021/03/23 08:19:20;;;;;;;21.10;12.20;;;4.40;99.90;;;;;;5132763;27;20470;-70
2021/03/23 08:22:22;;;;;;;21.93;13.97;;;4.40;99.90;;;;;;5132263;27;20917;-70
2021/03/23 08:25:00;;;;;;;21.03;11.03;;;4.50;99.90;;;;;;5132604;27;20514;-69
2021/03/23 08:27:42;;;;;;;16.23;11.20;;;4.70;99.90;;;;;;5139702;27;20435;-68
2021/03/23 08:30:26;;;;;;;17.23;10.80;;;4.70;99.90;;;;;;5142959;27;20962;-67
2021/03/23 08:33:01;;;;;;;19.70;11.40;;;4.70;99.90;;;;;;5134830;27;20502;-69
2021/03/23 08:35:54;;;;;;;20.60;12.47;;;4.70;99.90;;;;;;5132374;27;20503;-67
2021/03/23 08:38:44;;;;;;;15.03;10.83;;;4.70;99.90;;;;;;5132477;27;20475;-68
2021/03/23 08:41:17;;;;;;;19.47;11.30;;;4.70;99.90;;;;;;5132239;27;20477;-67
2021/03/23 08:43:45;;;;;;;20.53;10.33;;;4.60;99.90;;;;;;5136010;27;20429;-67
2021/03/23 08:46:16;;;;;;;19.53;11.00;;;4.50;99.90;;;;;;5152786;27;20448;-69
2021/03/23 08:48:48;;;;;;;21.97;12.40;;;4.60;99.90;;;;;;5152659;27;20450;-68
2021/03/23 08:51:19;;;;;;;23.47;12.20;;;4.70;99.90;;;;;;5152618;27;20490;-68
2021/03/23 08:53:56;;;;;;;25.70;11.70;;;4.80;99.90;;;;;;5152836;27;20475;-68
2021/03/23 08:56:53;;;;;;;21.83;10.90;;;4.80;99.90;;;;;;5152951;27;20513;-68
2021/03/23 08:59:47;;;;;;;22.20;12.20;;;4.90;99.90;;;;;;5153230;27;20440;-70
2021/03/23 09:02:47;;;;;;;19.23;10.13;;;5.10;99.90;;;;;;5153176;27;20434;-67
2021/03/23 09:05:55;;;;;;;18.57;8.60;;;5.40;99.90;;;;;;5152628;27;20514;-68
2021/03/23 09:08:50;;;;;;;18.40;10.13;;;5.60;99.90;;;;;;5152537;27;20426;-67
2021/03/23 09:11:40;;;;;;;14.73;9.70;;;6.00;99.90;;;;;;5152619;27;20914;-68
2021/03/23 09:14:23;;;;;;;20.70;9.73;;;6.10;99.90;;;;;;5152841;27;20426;-67
2021/03/23 09:17:28;;;;;;;13.17;8.53;;;6.40;99.90;;;;;;5152752;27;20432;-67
2021/03/23 09:19:57;;;;;;;19.30;7.60;;;6.50;99.90;;;;;;5130511;27;20485;-67
2021/03/23 09:22:39;;;;;;;11.43;7.70;;;6.50;99.90;;;;;;5151999;27;20794;-67
2021/03/23 09:25:48;;;;;;;14.80;6.90;;;6.50;99.90;;;;;;5152566;27;20434;-67
2021/03/23 09:28:44;;;;;;;9.97;6.57;;;6.50;99.90;;;;;;5152745;27;20513;-67
2021/03/23 09:31:13;;;;;;;14.23;6.10;;;6.40;99.90;;;;;;5130952;27;20487;-68
2021/03/23 09:33:41;;;;;;;8.70;4.83;;;6.40;99.90;;;;;;5152379;27;20442;-67
2021/03/23 09:36:46;;;;;;;7.30;5.23;;;6.30;99.90;;;;;;5152252;27;20430;-67
2021/03/23 09:39:46;;;;;;;8.23;5.60;;;6.10;99.90;;;;;;5152228;27;20461;-68
2021/03/23 09:42:36;;;;;;;29.80;13.70;;;6.00;99.90;;;;;;5156345;27;20430;-67
2021/03/23 09:45:36;;;;;;;11.93;7.40;;;5.90;99.90;;;;;;5156680;27;20433;-67
2021/03/23 09:48:31;;;;;;;18.53;9.80;;;5.80;99.90;;;;;;5156656;27;20426;-67
2021/03/23 09:51:02;;;;;;;11.03;7.37;;;5.70;99.90;;;;;;5156259;27;20449;-67
2021/03/23 09:53:37;;;;;;;9.93;6.47;;;5.80;99.90;;;;;;5156065;27;20426;-67
2021/03/23 09:56:10;;;;;;;13.00;7.00;;;5.60;99.90;;;;;;5156272;27;20433;-68
2021/03/23 09:58:38;;;;;;;10.13;6.70;;;5.50;99.90;;;;;;5156330;27;20472;-67
2021/03/23 10:01:17;;;;;;;10.80;6.10;;;5.60;99.90;;;;;;5156364;27;20446;-68
2021/03/23 10:03:45;;;;;;;11.70;6.93;;;5.70;99.90;;;;;;5156174;27;20753;-68
2021/03/23 10:06:14;;;;;;;11.63;7.93;;;5.80;99.90;;;;;;5156012;27;20510;-68
2021/03/23 10:08:51;;;;;;;17.33;8.87;;;5.90;99.90;;;;;;5156040;27;20426;-67
2021/03/23 10:11:19;;;;;;;13.13;8.33;;;6.00;99.90;;;;;;5155683;27;20967;-68
2021/03/23 10:13:49;;;;;;;9.40;6.27;;;6.20;99.90;;;;;;5156280;27;20993;-67
2021/03/23 10:16:30;;;;;;;8.33;5.77;;;6.20;99.90;;;;;;5156028;27;20418;-67
2021/03/23 10:19:00;;;;;;;12.07;6.80;;;6.30;99.90;;;;;;5155735;27;20484;-68
2021/03/23 10:21:30;;;;;;;32.13;14.70;;;6.40;99.90;;;;;;5155407;27;20958;-67
2021/03/23 10:24:00;;;;;;;17.97;7.60;;;6.50;99.90;;;;;;5155327;27;20437;-67
2021/03/23 10:26:35;;;;;;;10.20;6.97;;;6.50;99.90;;;;;;5155596;27;20418;-67
2021/03/23 10:29:12;;;;;;;20.80;11.37;;;6.60;99.90;;;;;;5155758;27;20434;-67
2021/03/23 10:31:42;;;;;;;11.13;7.00;;;6.80;99.90;;;;;;5155414;27;21037;-68
2021/03/23 10:34:13;;;;;;;12.03;7.20;;;6.80;99.90;;;;;;5154691;27;20446;-68
2021/03/23 10:36:49;;;;;;;12.97;6.47;;;6.90;99.90;;;;;;5154392;27;20525;-68
2021/03/23 10:39:50;;;;;;;19.50;6.83;;;6.90;99.90;;;;;;5154352;27;20556;-68
2021/03/23 10:42:24;;;;;;;12.40;7.87;;;6.90;99.90;;;;;;5153944;27;20423;-68
2021/03/23 10:44:51;;;;;;;13.93;6.17;;;6.90;99.90;;;;;;5154670;27;21024;-68
2021/03/23 10:47:31;;;;;;;13.93;8.00;;;6.80;99.90;;;;;;5154122;27;20428;-68
2021/03/23 10:50:14;;;;;;;11.47;7.73;;;6.90;99.90;;;;;;5154028;27;21026;-67
2021/03/23 10:52:41;;;;;;;13.30;6.50;;;6.90;99.90;;;;;;5153679;27;20568;-67
2021/03/23 10:55:27;;;;;;;17.07;8.53;;;6.90;99.90;;;;;;5154068;27;20515;-67
2021/03/23 10:58:22;;;;;;;9.27;5.87;;;7.00;99.90;;;;;;5153291;27;20498;-68
2021/03/23 11:00:51;;;;;;;13.00;7.07;;;7.10;99.90;;;;;;5153990;27;20458;-68
2021/03/23 11:03:31;;;;;;;10.03;6.27;;;7.10;99.90;;;;;;5153762;27;20491;-67
2021/03/23 11:06:01;;;;;;;9.20;6.90;;;7.10;99.90;;;;;;5153696;27;20462;-67
2021/03/23 11:08:28;;;;;;;12.00;6.00;;;7.10;99.90;;;;;;5153631;27;20469;-68
2021/03/23 11:10:58;;;;;;;10.60;6.37;;;7.10;99.90;;;;;;5153818;27;20446;-67
2021/03/23 11:13:25;;;;;;;13.60;8.93;;;7.20;99.90;;;;;;5153472;27;20477;-68
2021/03/23 11:15:53;;;;;;;15.67;6.83;;;7.30;99.90;;;;;;5153557;27;20439;-68
2021/03/23 11:18:27;;;;;;;13.27;8.27;;;7.40;99.90;;;;;;5153963;27;20468;-68
2021/03/23 11:20:54;;;;;;;12.50;7.83;;;7.60;99.90;;;;;;5153540;27;20473;-68
2021/03/23 11:23:33;;;;;;;9.40;6.73;;;7.50;99.90;;;;;;5153358;27;20461;-68
2021/03/23 11:26:01;;;;;;;16.43;9.03;;;7.50;99.90;;;;;;5153782;27;20429;-67
2021/03/23 11:28:30;;;;;;;23.63;15.57;;;7.50;99.90;;;;;;5153548;27;20434;-67
2021/03/23 11:30:57;;;;;;;9.30;5.93;;;7.60;99.90;;;;;;5153471;27;20446;-67
2021/03/23 11:33:24;;;;;;;15.80;10.50;;;7.70;99.90;;;;;;5127529;27;726142;-68
2021/03/23 11:35:51;;;;;;;12.63;7.50;;;7.90;99.90;;;;;;5154845;27;20434;-68
2021/03/23 11:38:19;;;;;;;9.17;6.00;;;8.40;99.90;;;;;;5154504;27;20462;-68
2021/03/23 11:40:46;;;;;;;15.83;5.30;;;8.90;99.90;;;;;;5154274;27;20481;-68
2021/03/23 11:43:21;;;;;;;17.57;6.90;;;9.10;99.90;;;;;;5154037;27;20430;-68
2021/03/23 11:45:48;;;;;;;12.70;8.10;;;9.40;99.90;;;;;;5154399;27;20634;-67
2021/03/23 11:48:18;;;;;;;16.03;8.37;;;9.50;99.90;;;;;;5154339;27;20426;-68
2021/03/23 11:50:49;;;;;;;8.80;6.77;;;9.70;99.90;;;;;;5153935;27;20446;-68
2021/03/23 11:53:18;;;;;;;9.07;6.33;;;9.70;99.90;;;;;;5153978;27;20497;-68
2021/03/23 11:55:45;;;;;;;10.83;6.83;;;10.00;99.90;;;;;;5154011;27;20927;-67
2021/03/23 11:58:13;;;;;;;10.37;6.27;;;10.20;99.90;;;;;;5153920;27;20804;-67
2021/03/23 12:00:41;;;;;;;15.13;7.90;;;10.20;99.90;;;;;;5153751;27;20466;-68
2021/03/23 12:03:10;;;;;;;8.77;5.40;;;9.80;99.90;;;;;;5153095;27;20430;-68
2021/03/23 12:05:38;;;;;;;18.27;8.40;;;9.80;99.90;;;;;;5154028;27;20939;-68
2021/03/23 12:08:32;;;;;;;10.07;6.40;;;9.90;99.90;;;;;;5153586;27;20446;-68
2021/03/23 12:11:06;;;;;;;10.73;6.70;;;10.20;99.90;;;;;;5153541;27;20454;-67
2021/03/23 12:13:42;;;;;;;12.53;5.97;;;10.50;99.90;;;;;;5153727;27;20418;-67
2021/03/23 12:16:15;;;;;;;8.83;5.40;;;10.60;99.90;;;;;;5153727;27;20438;-67
2021/03/23 12:18:52;;;;;;;13.03;7.60;;;10.70;99.90;;;;;;5153212;27;20835;-67
2021/03/23 12:21:21;;;;;;;13.27;6.37;;;10.80;99.90;;;;;;5153077;27;20438;-67
2021/03/23 12:23:48;;;;;;;11.57;7.00;;;10.90;99.90;;;;;;5153349;27;21027;-67
2021/03/23 12:26:15;;;;;;;11.27;7.40;;;11.10;99.90;;;;;;5153520;27;20944;-68
2021/03/23 12:28:43;;;;;;;11.77;7.20;;;11.30;99.90;;;;;;5153490;27;20513;-68
2021/03/23 12:31:11;;;;;;;13.03;6.43;;;11.40;99.90;;;;;;5153456;27;20454;-67
2021/03/23 12:33:38;;;;;;;18.17;11.03;;;11.50;99.90;;;;;;5153093;27;20448;-67
2021/03/23 12:36:06;;;;;;;10.50;6.87;;;11.30;99.60;;;;;;5153057;27;20419;-68
2021/03/23 12:38:35;;;;;;;15.67;6.67;;;11.20;99.60;;;;;;5153129;27;20525;-68
2021/03/23 12:41:02;;;;;;;16.70;7.30;;;11.20;99.60;;;;;;5153109;27;20571;-67
2021/03/23 12:43:29;;;;;;;13.27;6.40;;;11.10;99.90;;;;;;5152880;27;20415;-67
2021/03/23 12:45:57;;;;;;;7.03;5.97;;;11.20;99.90;;;;;;5153137;27;20485;-68
2021/03/23 12:48:26;;;;;;;13.43;7.23;;;11.10;99.90;;;;;;5153606;27;20930;-70
2021/03/23 12:50:54;;;;;;;14.70;6.57;;;11.00;99.90;;;;;;5152823;27;20822;-69
2021/03/23 12:53:22;;;;;;;7.60;5.60;;;11.00;99.90;;;;;;5152623;27;20948;-68
2021/03/23 12:55:51;;;;;;;8.80;5.60;;;11.00;99.90;;;;;;5152757;27;20462;-69
2021/03/23 12:58:22;;;;;;;11.03;6.90;;;11.10;99.90;;;;;;5152416;27;20462;-68
2021/03/23 13:00:49;;;;;;;12.27;6.50;;;11.20;99.90;;;;;;5153073;27;20472;-68
2021/03/23 13:03:17;;;;;;;7.90;5.90;;;11.60;99.90;;;;;;5152949;27;20425;-68
2021/03/23 13:05:46;;;;;;;8.87;6.33;;;11.90;99.90;;;;;;5153008;27;20472;-69
2021/03/23 13:08:22;;;;;;;13.83;6.50;;;12.40;99.90;;;;;;5152451;27;20476;-69
2021/03/23 13:10:52;;;;;;;9.70;6.30;;;12.50;99.90;;;;;;5152491;27;20479;-68
2021/03/23 13:13:22;;;;;;;11.60;6.70;;;12.70;99.90;;;;;;5152669;27;20845;-69